Time;durP1;ratioP1;P1;durP2;ratioP2;P2;SDS_P1;SDS_P2;PMS_P1;PMS_P2;Temp;Humidity;BMP_temperature;BMP_pressure;BME280_temperature;BME280_humidity;BME280_pressure;Samples;Min_cycle;Max_cycle;Signal;HPM_P1;HPM_P2
2022/01/04 00:01:58;;;;;;;;;3.33;2.00;;;;;13.65;67.16;99798.63;4978377;28;45892;-82
2022/01/04 00:04:31;;;;;;;;;4.00;3.00;;;;;13.62;67.99;99804.66;4982266;28;45342;-82
2022/01/04 00:06:57;;;;;;;;;2.67;1.67;;;;;13.40;67.88;99774.31;4976726;28;47924;-81
2022/01/04 00:09:26;;;;;;;;;1.00;1.00;;;;;13.58;67.83;99801.56;4979942;28;45499;-83
2022/01/04 00:14:22;;;;;;;;;3.33;3.33;;;;;13.46;68.18;99784.31;4980516;28;45570;-83
2022/01/04 00:16:50;;;;;;;;;4.00;3.00;;;;;13.52;68.59;99786.06;4961958;28;46168;-78
2022/01/04 00:19:29;;;;;;;;;5.00;3.00;;;;;13.48;67.85;99779.38;4979882;28;45607;-86
2022/01/04 00:22:00;;;;;;;;;3.00;3.00;;;;;13.39;67.90;99773.47;4968893;28;44882;-85
2022/01/04 00:24:28;;;;;;;;;5.00;4.00;;;;;13.13;67.83;99741.91;4962366;28;46009;-80
2022/01/04 00:26:54;;;;;;;;;4.33;3.33;;;;;13.20;68.49;99750.84;4984390;28;47141;-79
2022/01/04 00:29:26;;;;;;;;;4.00;4.00;;;;;13.13;69.11;99736.41;4980425;28;45386;-78
2022/01/04 00:31:59;;;;;;;;;5.33;5.33;;;;;13.14;69.19;99753.75;4986821;28;45503;-85
2022/01/04 00:34:25;;;;;;;;;7.33;5.00;;;;;13.01;68.66;99730.97;4983164;28;45901;-83
2022/01/04 00:36:50;;;;;;;;;3.00;3.00;;;;;12.97;68.48;99729.81;4952541;28;46171;-78
2022/01/04 00:39:19;;;;;;;;;2.00;2.00;;;;;12.88;68.72;99732.13;4971119;28;45294;-80
2022/01/04 00:41:44;;;;;;;;;2.33;1.67;;;;;12.77;69.22;99718.44;4973498;28;45834;-79
2022/01/04 00:44:13;;;;;;;;;2.67;2.67;;;;;12.59;69.60;99705.75;4972655;28;45628;-78
2022/01/04 00:46:38;;;;;;;;;1.00;1.00;;;;;12.56;69.96;99714.50;4968407;28;47181;-78
2022/01/04 00:49:10;;;;;;;;;1.67;1.33;;;;;12.41;70.45;99702.16;4967370;28;45440;-77
2022/01/04 00:51:41;;;;;;;;;2.00;1.00;;;;;12.35;70.89;99705.91;4973281;28;45819;-78
2022/01/04 00:54:07;;;;;;;;;1.33;0.67;;;;;12.28;71.18;99703.28;4972067;28;45363;-79
2022/01/04 00:56:33;;;;;;;;;0.00;0.00;;;;;12.25;71.26;99706.53;4971071;28;47364;-79
2022/01/04 00:58:59;;;;;;;;;0.00;0.00;;;;;12.17;71.42;99688.53;4972530;28;45452;-78
2022/01/04 01:01:28;;;;;;;;;3.00;2.00;;;;;12.09;71.40;99688.91;4973862;28;45413;-75
2022/01/04 01:03:53;;;;;;;;;3.00;1.33;;;;;12.01;71.21;99681.06;4972886;28;45412;-77
2022/01/04 01:06:20;;;;;;;;;1.00;1.00;;;;;11.98;71.13;99687.06;4971819;28;46806;-77
2022/01/04 01:08:45;;;;;;;;;0.00;0.00;;;;;11.93;71.65;99686.94;4950774;28;45392;-76
2022/01/04 01:11:11;;;;;;;;;1.00;1.00;;;;;11.86;72.25;99665.06;4935305;28;45503;-75
2022/01/04 01:13:37;;;;;;;;;1.00;1.00;;;;;11.82;71.95;99663.88;4968880;28;45972;-79
2022/01/04 01:16:04;;;;;;;;;1.00;1.00;;;;;11.75;72.10;99661.28;4971835;28;45563;-77
2022/01/04 01:18:29;;;;;;;;;0.00;0.00;;;;;11.70;72.42;99649.38;4971586;28;45911;-78
2022/01/04 01:20:55;;;;;;;;;1.00;1.00;;;;;11.65;72.56;99658.34;4976798;28;45338;-77
2022/01/04 01:23:21;;;;;;;;;0.33;0.33;;;;;11.62;72.63;99654.16;4978399;28;45427;-76
2022/01/04 01:25:50;;;;;;;;;1.00;1.00;;;;;11.61;72.83;99638.75;4962397;28;46751;-79
2022/01/04 01:28:17;;;;;;;;;0.33;0.33;;;;;11.58;72.50;99638.41;4979835;28;45834;-78
2022/01/04 01:30:44;;;;;;;;;0.33;0.33;;;;;11.47;72.91;99626.38;4966155;28;45373;-76
2022/01/04 01:33:10;;;;;;;;;0.00;0.00;;;;;11.37;72.22;99623.41;4980586;28;46516;-75
2022/01/04 01:35:37;;;;;;;;;0.00;0.00;;;;;11.34;72.81;99629.41;4980509;28;46101;-75
2022/01/04 01:38:04;;;;;;;;;1.00;0.00;;;;;11.27;72.23;99618.53;4984524;28;45466;-79
2022/01/04 01:40:40;;;;;;;;;0.67;0.00;;;;;11.17;72.69;99607.31;4982002;28;45810;-77
2022/01/04 01:43:06;;;;;;;;;0.00;0.00;;;;;11.10;72.67;99593.75;4983067;28;45845;-78
2022/01/04 01:45:32;;;;;;;;;0.00;0.00;;;;;11.09;73.12;99595.66;4980382;28;46929;-79
2022/01/04 01:47:57;;;;;;;;;0.00;0.00;;;;;11.04;73.00;99592.78;4983811;28;45665;-77
2022/01/04 01:50:23;;;;;;;;;0.00;0.00;;;;;10.97;73.67;99577.53;4964760;28;45762;-73
2022/01/04 01:52:51;;;;;;;;;0.00;0.00;;;;;10.94;74.69;99581.59;4979908;28;45345;-75
2022/01/04 01:55:18;;;;;;;;;0.00;0.00;;;;;10.92;73.92;99575.53;4979899;28;45742;-74
2022/01/04 01:57:45;;;;;;;;;0.00;0.00;;;;;10.87;73.80;99569.94;4978142;28;45427;-76
2022/01/04 02:00:13;;;;;;;;;0.00;0.00;;;;;10.84;74.07;99567.66;4979054;28;45423;-79
2022/01/04 02:02:40;;;;;;;;;0.00;0.00;;;;;10.86;74.19;99571.00;4979688;28;45787;-79
2022/01/04 02:05:07;;;;;;;;;2.00;0.00;;;;;10.82;75.26;99556.09;4980286;28;45954;-76
2022/01/04 02:07:33;;;;;;;;;0.00;0.00;;;;;10.76;76.90;99563.38;4959303;28;45410;-79
2022/01/04 02:10:03;;;;;;;;;0.00;0.00;;;;;10.65;77.76;99556.81;4977254;28;45722;-75
2022/01/04 02:12:37;;;;;;;;;0.00;0.00;;;;;10.52;80.36;99573.50;4980661;28;45481;-75
2022/01/04 02:15:05;;;;;;;;;0.00;0.00;;;;;10.36;79.35;99570.41;4997403;28;46293;-79
2022/01/04 02:17:31;;;;;;;;;0.00;0.00;;;;;10.38;78.62;99556.47;5000700;28;45872;-79
2022/01/04 02:19:58;;;;;;;;;0.00;0.00;;;;;10.32;78.22;99541.75;4998941;28;44774;-77
2022/01/04 02:22:24;;;;;;;;;0.00;0.00;;;;;10.33;77.28;99535.25;4992870;28;45737;-78
2022/01/04 02:24:49;;;;;;;;;0.00;0.00;;;;;10.27;79.87;99535.31;4978119;28;45769;-78
2022/01/04 02:27:16;;;;;;;;;0.00;0.00;;;;;10.15;78.61;99527.06;4977926;28;45629;-78
2022/01/04 02:29:43;;;;;;;;;1.00;0.00;;;;;10.13;78.53;99529.22;4978794;28;45801;-79
2022/01/04 02:32:10;;;;;;;;;0.00;0.00;;;;;10.02;81.20;99520.75;4979197;28;45102;-84
2022/01/04 02:34:36;;;;;;;;;0.00;0.00;;;;;9.98;81.53;99527.75;4988538;28;45360;-81
2022/01/04 02:37:02;;;;;;;;;0.00;0.00;;;;;9.96;81.86;99515.41;4978647;28;45509;-79
2022/01/04 02:39:27;;;;;;;;;1.00;0.00;;;;;9.92;82.20;99506.78;4979935;28;45376;-78
2022/01/04 02:41:53;;;;;;;;;0.00;0.00;;;;;9.91;81.19;99502.41;4979319;28;45362;-78
2022/01/04 02:44:19;;;;;;;;;0.00;0.00;;;;;9.90;82.34;99496.09;4976551;28;47329;-80
2022/01/04 02:46:44;;;;;;;;;0.00;0.00;;;;;9.89;80.78;99491.69;4978281;28;45394;-77
2022/01/04 02:49:10;;;;;;;;;0.00;0.00;;;;;9.88;80.08;99486.47;4977776;28;45480;-79
2022/01/04 02:51:38;;;;;;;;;0.00;0.00;;;;;9.80;82.34;99473.91;4976066;28;45647;-79
2022/01/04 02:54:04;;;;;;;;;0.00;0.00;;;;;9.85;83.00;99475.94;4978694;28;46503;-77
2022/01/04 02:56:30;;;;;;;;;0.00;0.00;;;;;9.78;81.93;99453.34;4976871;28;45787;-78
2022/01/04 02:59:02;;;;;;;;;0.00;0.00;;;;;9.90;80.77;99462.41;4977871;28;46055;-78
2022/01/04 03:01:31;;;;;;;;;0.00;0.00;;;;;9.92;80.20;99453.94;4979277;28;46647;-78
2022/01/04 03:03:57;;;;;;;;;1.00;0.00;;;;;9.88;79.73;99442.63;4977029;28;45439;-79
2022/01/04 03:06:23;;;;;;;;;0.00;0.00;;;;;9.96;79.76;99450.50;4977488;28;46160;-79
2022/01/04 03:08:49;;;;;;;;;0.00;0.00;;;;;9.98;79.11;99440.13;4973638;28;45380;-78
2022/01/04 03:11:15;;;;;;;;;0.00;0.00;;;;;10.00;78.68;99439.88;4979663;28;46809;-78
2022/01/04 03:13:40;;;;;;;;;0.00;0.00;;;;;10.00;78.63;99439.88;4970904;28;46517;-79
2022/01/04 03:16:06;;;;;;;;;0.00;0.00;;;;;9.96;78.92;99422.28;4977741;28;45460;-77
2022/01/04 03:18:32;;;;;;;;;0.00;0.00;;;;;9.95;78.48;99415.94;4961477;28;45783;-80
2022/01/04 03:20:58;;;;;;;;;0.00;0.00;;;;;9.99;78.83;99419.88;4957677;28;45522;-78
2022/01/04 03:23:23;;;;;;;;;0.33;0.33;;;;;10.06;78.66;99428.81;4958076;28;45593;-78
2022/01/04 03:25:49;;;;;;;;;1.00;0.00;;;;;10.08;78.51;99412.16;4965185;28;45809;-79
2022/01/04 03:28:18;;;;;;;;;0.00;0.00;;;;;10.11;78.44;99419.88;4978213;28;45373;-78
2022/01/04 03:30:44;;;;;;;;;0.00;0.00;;;;;10.10;78.03;99412.72;4976297;28;45437;-79
2022/01/04 03:33:09;;;;;;;;;1.00;0.00;;;;;10.10;77.84;99406.44;4976650;28;46567;-78
2022/01/04 03:35:38;;;;;;;;;0.00;0.00;;;;;10.11;78.20;99403.44;4965891;28;45500;-78
2022/01/04 03:38:03;;;;;;;;;0.00;0.00;;;;;10.18;78.13;99414.28;4952633;28;45465;-77
2022/01/04 03:40:29;;;;;;;;;1.00;0.00;;;;;10.18;77.95;99419.75;4969426;28;45437;-77
2022/01/04 03:42:54;;;;;;;;;0.00;0.00;;;;;10.21;77.90;99403.69;4974401;28;45409;-79
2022/01/04 03:45:20;;;;;;;;;0.00;0.00;;;;;10.17;77.46;99397.00;4990826;28;45393;-78
2022/01/04 03:47:46;;;;;;;;;0.00;0.00;;;;;10.17;77.47;99399.75;4989614;28;45413;-77
2022/01/04 03:50:12;;;;;;;;;0.00;0.00;;;;;10.25;77.79;99409.50;4990198;28;45425;-77
2022/01/04 03:52:38;;;;;;;;;0.00;0.00;;;;;10.24;77.69;99408.69;4989062;28;45440;-78
2022/01/04 03:55:06;;;;;;;;;0.00;0.00;;;;;10.33;77.86;99411.03;4989432;28;44709;-79
2022/01/04 03:57:35;;;;;;;;;0.00;0.00;;;;;10.38;78.20;99403.81;4985992;28;45458;-79
2022/01/04 04:00:01;;;;;;;;;0.00;0.00;;;;;10.41;78.04;99403.31;4971709;28;46232;-74
2022/01/04 04:02:26;;;;;;;;;0.00;0.00;;;;;10.44;77.37;99399.28;4987648;28;48007;-79
2022/01/04 04:04:52;;;;;;;;;0.00;0.00;;;;;10.48;77.35;99396.88;4972212;28;47006;-79
2022/01/04 04:07:17;;;;;;;;;0.00;0.00;;;;;10.52;76.50;99398.06;4988738;28;45532;-78
2022/01/04 04:09:43;;;;;;;;;0.00;0.00;;;;;10.49;75.87;99401.28;4989134;28;45374;-78
2022/01/04 04:12:09;;;;;;;;;0.00;0.00;;;;;10.45;75.83;99387.25;4986607;28;45155;-78
2022/01/04 04:14:35;;;;;;;;;0.00;0.00;;;;;10.47;75.64;99401.53;4983984;28;45814;-75
2022/01/04 04:17:03;;;;;;;;;0.00;0.00;;;;;10.47;75.92;99403.44;4970930;28;45367;-78
2022/01/04 04:19:28;;;;;;;;;0.00;0.00;;;;;10.40;75.71;99387.97;4991173;28;45331;-77
2022/01/04 04:21:54;;;;;;;;;0.00;0.00;;;;;10.44;76.58;99390.22;4987399;28;45344;-74
2022/01/04 04:24:20;;;;;;;;;0.00;0.00;;;;;10.55;77.08;99405.81;4982059;28;45277;-78
2022/01/04 04:26:46;;;;;;;;;0.00;0.00;;;;;10.57;76.85;99403.66;4984064;28;44707;-77
2022/01/04 04:29:11;;;;;;;;;2.00;0.00;;;;;10.58;76.00;99397.09;4990954;28;45516;-76
2022/01/04 04:31:39;;;;;;;;;0.00;0.00;;;;;10.62;75.55;99392.78;4959484;28;46628;-78
2022/01/04 04:34:05;;;;;;;;;0.00;0.00;;;;;10.60;75.74;99395.78;4972924;28;45719;-77
2022/01/04 04:36:31;;;;;;;;;0.00;0.00;;;;;10.68;75.68;99410.19;4974125;28;45340;-78
2022/01/04 04:38:56;;;;;;;;;0.00;0.00;;;;;10.67;75.26;99408.50;4973670;28;46008;-78
2022/01/04 04:41:24;;;;;;;;;0.00;0.00;;;;;10.69;75.47;99409.94;4973900;28;45314;-78
2022/01/04 04:43:54;;;;;;;;;0.00;0.00;;;;;10.72;75.54;99414.13;4971861;28;45774;-78
2022/01/04 04:46:19;;;;;;;;;0.00;0.00;;;;;10.71;75.46;99407.78;4971822;28;45716;-77
2022/01/04 04:48:45;;;;;;;;;0.00;0.00;;;;;10.72;74.42;99403.97;4971439;28;45846;-75
2022/01/04 04:51:10;;;;;;;;;0.00;0.00;;;;;10.72;74.73;99406.72;4954842;28;46817;-78
2022/01/04 04:53:36;;;;;;;;;0.00;0.00;;;;;10.76;74.78;99415.28;4974694;28;45621;-77
2022/01/04 04:56:02;;;;;;;;;0.00;0.00;;;;;10.75;74.69;99425.44;4973516;28;45877;-76
2022/01/04 04:58:27;;;;;;;;;0.00;0.00;;;;;10.71;74.22;99417.94;4974520;28;45403;-77
2022/01/04 05:00:58;;;;;;;;;0.00;0.00;;;;;10.74;74.75;99436.63;4974365;28;45397;-79
2022/01/04 05:03:24;;;;;;;;;0.00;0.00;;;;;10.63;74.23;99427.38;4972723;28;44775;-79
2022/01/04 05:05:49;;;;;;;;;0.00;0.00;;;;;10.69;74.43;99436.50;4973217;28;45453;-80
2022/01/04 05:08:14;;;;;;;;;0.00;0.00;;;;;10.69;74.02;99440.09;4974629;28;45580;-76
2022/01/04 05:10:42;;;;;;;;;0.00;0.00;;;;;10.69;74.61;99439.25;4974176;28;46390;-78
2022/01/04 05:13:08;;;;;;;;;0.00;0.00;;;;;10.65;74.10;99444.41;4972689;28;45827;-78
2022/01/04 05:15:33;;;;;;;;;0.00;0.00;;;;;10.60;74.24;99436.09;4974544;28;45446;-77
2022/01/04 05:17:58;;;;;;;;;0.33;0.33;;;;;10.64;74.19;99442.72;4972499;28;45832;-78
2022/01/04 05:20:24;;;;;;;;;0.00;0.00;;;;;10.63;74.30;99437.47;4972974;28;45405;-75
2022/01/04 05:22:49;;;;;;;;;0.00;0.00;;;;;10.64;74.65;99439.16;4973803;28;45395;-76
2022/01/04 05:25:15;;;;;;;;;0.67;0.00;;;;;10.65;74.52;99441.66;4972891;28;45783;-79
2022/01/04 05:27:40;;;;;;;;;0.00;0.00;;;;;10.63;74.55;99442.97;4961575;28;46471;-78
2022/01/04 05:30:07;;;;;;;;;0.00;0.00;;;;;10.68;74.67;99452.13;4969729;28;46591;-78
2022/01/04 05:32:32;;;;;;;;;0.00;0.00;;;;;10.68;74.31;99449.41;4963771;28;45572;-78
2022/01/04 05:34:57;;;;;;;;;0.00;0.00;;;;;10.63;74.35;99435.59;4963617;28;45520;-79
2022/01/04 05:37:23;;;;;;;;;0.00;0.00;;;;;10.64;73.97;99434.50;4968727;28;45711;-78
2022/01/04 05:39:48;;;;;;;;;0.00;0.00;;;;;10.68;73.72;99435.69;4956597;28;46461;-78
2022/01/04 05:42:14;;;;;;;;;0.00;0.00;;;;;10.69;74.01;99437.38;4952498;28;45755;-77
2022/01/04 05:44:39;;;;;;;;;0.00;0.00;;;;;10.74;74.74;99439.38;4950816;28;45828;-71
2022/01/04 05:47:06;;;;;;;;;0.00;0.00;;;;;10.74;74.71;99426.50;4954307;28;45545;-79
2022/01/04 05:49:31;;;;;;;;;0.00;0.00;;;;;10.77;73.50;99417.78;4962305;28;45825;-73
2022/01/04 05:51:57;;;;;;;;;0.00;0.00;;;;;10.82;74.29;99418.97;4950454;28;45596;-79
2022/01/04 05:54:22;;;;;;;;;0.67;0.67;;;;;10.82;73.51;99425.28;4953350;28;45366;-75
2022/01/04 05:56:48;;;;;;;;;1.33;0.00;;;;;10.88;73.90;99428.97;4945137;28;45907;-80
2022/01/04 05:59:13;;;;;;;;;0.00;0.00;;;;;10.87;73.76;99424.56;4971795;28;46642;-82
2022/01/04 06:01:39;;;;;;;;;0.67;0.67;;;;;10.84;73.52;99411.31;4957460;28;45440;-79
2022/01/04 06:04:04;;;;;;;;;0.00;0.00;;;;;10.93;73.64;99420.84;4953320;28;45417;-78
2022/01/04 06:06:30;;;;;;;;;0.00;0.00;;;;;10.95;73.08;99414.03;4961902;28;45442;-78
2022/01/04 06:08:55;;;;;;;;;0.00;0.00;;;;;10.95;73.50;99418.69;4969019;28;47639;-75
2022/01/04 06:11:43;;;;;;;;;0.00;0.00;;;;;10.97;73.28;99422.00;4970143;28;45552;-74
2022/01/04 06:16:54;;;;;;;;;1.00;0.00;;;;;11.02;73.01;99413.88;4970640;28;45578;-79
2022/01/04 06:19:19;;;;;;;;;0.00;0.00;;;;;11.07;73.24;99418.63;4956605;28;45612;-74
2022/01/04 06:21:45;;;;;;;;;0.00;0.00;;;;;11.08;73.64;99429.38;4967446;28;45828;-77
2022/01/04 06:24:10;;;;;;;;;0.00;0.00;;;;;11.07;72.40;99433.19;4968939;28;45723;-75
2022/01/04 06:26:36;;;;;;;;;0.33;0.33;;;;;11.07;71.93;99435.09;4971418;28;45842;-75
2022/01/04 06:29:02;;;;;;;;;0.33;0.33;;;;;11.09;72.33;99463.13;4965200;28;46941;-78
2022/01/04 06:31:28;;;;;;;;;1.00;0.00;;;;;11.10;72.26;99467.53;4974935;28;46056;-74
2022/01/04 06:33:54;;;;;;;;;0.33;0.33;;;;;11.13;72.90;99469.78;4974512;28;45558;-76
2022/01/04 06:36:20;;;;;;;;;0.00;0.00;;;;;11.15;72.40;99458.56;4956228;28;45896;-76
2022/01/04 06:38:45;;;;;;;;;0.33;0.33;;;;;11.17;72.29;99459.16;4973867;28;46493;-77
2022/01/04 06:41:11;;;;;;;;;0.00;0.00;;;;;11.15;72.57;99451.16;4957198;28;45796;-70
2022/01/04 06:43:37;;;;;;;;;0.00;0.00;;;;;11.17;72.41;99470.97;4975416;28;45699;-76
2022/01/04 06:46:03;;;;;;;;;1.67;1.00;;;;;11.18;72.36;99471.81;4975373;28;45382;-78
2022/01/04 06:48:28;;;;;;;;;2.67;2.67;;;;;11.20;72.91;99478.72;4976081;28;45727;-73
2022/01/04 06:50:53;;;;;;;;;1.00;1.00;;;;;11.22;72.37;99467.50;4975545;28;45589;-75
2022/01/04 06:53:19;;;;;;;;;2.00;1.00;;;;;11.22;72.63;99486.72;4974766;28;45804;-76
2022/01/04 06:55:50;;;;;;;;;1.00;1.00;;;;;11.21;72.42;99496.84;4973494;28;45330;-71
2022/01/04 06:58:16;;;;;;;;;2.67;2.67;;;;;11.20;72.15;99497.09;4957272;28;45496;-77
2022/01/04 07:00:41;;;;;;;;;4.67;2.67;;;;;11.20;72.10;99499.84;4966756;28;45407;-70
2022/01/04 07:03:07;;;;;;;;;5.67;5.67;;;;;11.19;72.95;99501.75;4973971;28;45850;-75
2022/01/04 07:05:35;;;;;;;;;5.00;5.00;;;;;11.21;72.40;99498.75;4974114;28;45552;-70
2022/01/04 07:08:01;;;;;;;;;10.33;8.00;;;;;11.19;72.50;99501.75;4972625;28;46154;-76
2022/01/04 07:10:26;;;;;;;;;6.00;4.00;;;;;11.23;72.57;99488.38;4970688;28;45512;-70
2022/01/04 07:12:52;;;;;;;;;9.67;8.67;;;;;11.23;72.12;99491.94;4973460;28;45984;-76
2022/01/04 07:15:17;;;;;;;;;3.67;3.67;;;;;11.22;72.33;99490.28;4974320;28;45906;-71
2022/01/04 07:17:42;;;;;;;;;11.67;9.00;;;;;11.21;73.26;99505.09;4972402;28;46033;-70
2022/01/04 07:20:09;;;;;;;;;5.33;5.33;;;;;11.23;72.91;99502.94;4970961;28;45499;-75
2022/01/04 07:22:36;;;;;;;;;7.33;6.67;;;;;11.22;72.40;99500.44;4980504;28;45420;-70
2022/01/04 07:25:02;;;;;;;;;7.00;6.00;;;;;11.21;71.71;99488.63;4970406;28;45690;-77
2022/01/04 07:27:28;;;;;;;;;8.67;8.00;;;;;11.21;72.28;99494.13;4954466;28;47330;-71
2022/01/04 07:29:53;;;;;;;;;9.00;9.00;;;;;11.20;72.09;99483.38;4954320;28;45590;-69
2022/01/04 07:32:19;;;;;;;;;10.67;9.00;;;;;11.24;72.03;99492.78;4971262;28;46275;-70
2022/01/04 07:34:47;;;;;;;;;6.00;6.00;;;;;11.22;72.38;99506.75;4968989;28;46167;-71
2022/01/04 07:37:13;;;;;;;;;7.00;6.00;;;;;11.26;72.67;99515.34;4967945;28;46938;-74
2022/01/04 07:39:39;;;;;;;;;10.00;5.33;;;;;11.25;72.43;99517.22;4970328;28;46318;-77
2022/01/04 07:42:05;;;;;;;;;17.33;15.33;;;;;11.28;72.01;99524.16;4973105;28;45899;-76
2022/01/04 07:44:30;;;;;;;;;6.00;6.00;;;;;11.28;72.13;99521.41;4973479;28;45512;-78
2022/01/04 07:46:56;;;;;;;;;18.67;16.00;;;;;11.28;71.89;99532.38;4950720;28;46782;-75
2022/01/04 07:49:21;;;;;;;;;8.67;7.00;;;;;11.32;72.10;99530.81;4958246;28;45729;-75
2022/01/04 07:51:47;;;;;;;;;15.00;15.00;;;;;11.35;72.31;99541.31;4969250;28;45522;-75
2022/01/04 07:54:13;;;;;;;;;6.67;5.00;;;;;11.38;71.78;99540.00;4971618;28;45474;-71
2022/01/04 07:56:38;;;;;;;;;6.33;5.33;;;;;11.38;71.74;99549.06;4971988;28;46956;-71
2022/01/04 07:59:04;;;;;;;;;7.00;7.00;;;;;11.38;71.97;99538.06;4966242;28;45967;-76
2022/01/04 08:01:31;;;;;;;;;8.33;7.33;;;;;11.39;70.91;99545.25;4961043;28;45914;-77
2022/01/04 08:03:57;;;;;;;;;6.00;5.00;;;;;11.39;71.04;99558.97;4970852;28;45432;-71
2022/01/04 08:06:22;;;;;;;;;6.00;5.00;;;;;11.40;71.47;99577.09;4962442;28;46299;-77
2022/01/04 08:08:48;;;;;;;;;8.00;8.00;;;;;11.39;71.14;99580.09;4962485;28;45850;-76
2022/01/04 08:11:14;;;;;;;;;7.00;4.33;;;;;11.38;71.41;99584.75;4934500;28;45490;-77
2022/01/04 08:13:39;;;;;;;;;3.00;2.00;;;;;11.38;71.05;99587.50;4975250;28;45636;-73
2022/01/04 08:16:13;;;;;;;;;4.00;2.67;;;;;11.36;70.81;99606.13;4965287;28;46156;-72
2022/01/04 08:18:48;;;;;;;;;3.00;3.00;;;;;11.36;71.45;99606.13;4971017;28;45565;-78
2022/01/04 08:21:13;;;;;;;;;2.00;2.00;;;;;11.33;70.65;99617.56;4976511;28;45470;-72
2022/01/04 08:23:39;;;;;;;;;4.67;3.00;;;;;11.34;70.84;99602.78;4971866;28;45469;-73
2022/01/04 08:26:04;;;;;;;;;3.00;3.00;;;;;11.35;71.39;99596.22;4971717;28;45823;-73
2022/01/04 08:28:30;;;;;;;;;3.33;3.33;;;;;11.37;70.78;99585.00;4971543;28;45971;-73
2022/01/04 08:30:55;;;;;;;;;6.67;5.33;;;;;11.37;70.19;99583.06;4972700;28;45693;-78
2022/01/04 08:33:21;;;;;;;;;10.00;7.00;;;;;11.37;70.99;99588.56;4971812;28;45783;-77
2022/01/04 08:35:47;;;;;;;;;8.00;5.33;;;;;11.42;70.77;99602.41;4977181;28;45955;-72
2022/01/04 08:38:13;;;;;;;;;10.67;6.33;;;;;11.43;70.79;99612.28;4952555;28;46010;-72
2022/01/04 08:40:39;;;;;;;;;8.00;6.00;;;;;11.43;70.41;99616.97;4953333;28;45563;-72
2022/01/04 08:43:05;;;;;;;;;8.67;7.00;;;;;11.39;70.37;99610.28;4969668;28;47024;-72
2022/01/04 08:45:31;;;;;;;;;6.33;5.33;;;;;11.40;71.03;99614.69;4970705;28;45318;-77
2022/01/04 08:47:56;;;;;;;;;8.00;8.00;;;;;11.45;70.51;99612.03;4973980;28;46014;-78
2022/01/04 08:50:22;;;;;;;;;9.33;7.33;;;;;11.45;70.43;99620.28;4983940;28;45771;-76
2022/01/04 08:52:54;;;;;;;;;8.33;8.33;;;;;11.46;70.72;99617.28;4978339;28;45722;-83
2022/01/04 08:55:19;;;;;;;;;11.67;10.33;;;;;11.44;70.87;99624.94;4955199;28;45539;-77
2022/01/04 08:57:45;;;;;;;;;16.67;11.33;;;;;11.47;70.90;99629.94;4971232;28;45759;-76
2022/01/04 09:00:11;;;;;;;;;16.00;12.00;;;;;11.48;70.68;99622.53;4971706;28;45676;-71
2022/01/04 09:02:37;;;;;;;;;9.33;8.67;;;;;11.49;71.21;99621.47;4980269;28;45531;-74
2022/01/04 09:05:03;;;;;;;;;8.00;8.00;;;;;11.48;71.62;99620.66;4975295;28;46626;-77
2022/01/04 09:07:29;;;;;;;;;9.00;8.33;;;;;11.54;70.96;99632.59;4972977;28;45807;-78
2022/01/04 09:09:55;;;;;;;;;8.33;7.00;;;;;11.48;71.12;99628.88;4986264;28;45492;-75
2022/01/04 09:12:24;;;;;;;;;11.00;10.00;;;;;11.56;71.40;99638.66;4971985;28;46910;-77
2022/01/04 09:14:59;;;;;;;;;8.67;8.67;;;;;11.59;71.26;99648.31;4990463;28;45761;-70
2022/01/04 09:20:12;;;;;;;;;7.00;6.00;;;;;11.65;71.08;99641.84;4975326;28;45523;-75
2022/01/04 09:22:41;;;;;;;;;7.67;6.33;;;;;11.69;70.76;99643.03;4991360;28;45487;-77
2022/01/04 09:25:07;;;;;;;;;6.00;5.00;;;;;11.70;70.45;99635.63;4969674;28;46681;-78
2022/01/04 09:27:33;;;;;;;;;5.00;3.33;;;;;11.71;69.79;99624.41;4974459;28;45846;-77
2022/01/04 09:30:03;;;;;;;;;2.67;2.67;;;;;11.71;70.14;99616.16;4957304;28;45330;-77
2022/01/04 09:32:36;;;;;;;;;5.00;5.00;;;;;11.73;69.56;99608.50;4977698;28;45681;-85
2022/01/04 09:35:03;;;;;;;;;4.33;4.00;;;;;11.66;69.82;99594.94;4999897;28;45666;-79
2022/01/04 09:37:29;;;;;;;;;5.00;5.00;;;;;11.73;70.11;99619.47;4992376;28;45554;-79
2022/01/04 09:39:54;;;;;;;;;9.33;7.33;;;;;11.81;69.94;99635.59;4959970;28;45879;-82
2022/01/04 09:42:20;;;;;;;;;13.67;12.67;;;;;11.85;69.63;99635.94;4971316;28;45475;-81
2022/01/04 09:44:48;;;;;;;;;9.00;8.00;;;;;11.87;69.02;99635.69;4958031;28;45573;-80
2022/01/04 09:47:14;;;;;;;;;5.00;5.00;;;;;11.82;68.86;99630.91;4970756;28;45398;-81
2022/01/04 09:49:39;;;;;;;;;5.00;3.67;;;;;11.87;68.52;99635.69;4976485;28;45670;-81
2022/01/04 09:52:08;;;;;;;;;9.33;7.67;;;;;11.90;69.25;99649.78;4979524;28;45346;-80
2022/01/04 09:54:34;;;;;;;;;6.00;5.00;;;;;11.95;68.99;99657.31;4979170;28;45706;-80
2022/01/04 09:56:59;;;;;;;;;14.67;10.33;;;;;11.98;68.46;99663.16;4978207;28;45870;-76
2022/01/04 09:59:24;;;;;;;;;3.33;3.33;;;;;12.01;68.63;99661.81;4959823;28;45435;-77
2022/01/04 10:01:55;;;;;;;;;21.00;17.00;;;;;12.03;69.09;99659.66;4978576;28;45511;-77
2022/01/04 10:04:24;;;;;;;;;12.33;11.33;;;;;12.07;69.32;99669.09;4977039;28;46160;-79
2022/01/04 10:07:01;;;;;;;;;10.33;8.33;;;;;12.15;69.32;99674.16;4977650;28;45666;-79
2022/01/04 10:09:39;;;;;;;;;5.33;5.00;;;;;12.21;68.63;99671.53;4960466;28;45349;-78
2022/01/04 10:12:06;;;;;;;;;7.00;6.00;;;;;12.26;68.07;99666.13;4976282;28;45688;-73
2022/01/04 10:14:35;;;;;;;;;5.67;5.67;;;;;12.27;67.89;99674.13;4970194;28;46230;-71
2022/01/04 10:17:16;;;;;;;;;3.00;3.00;;;;;12.31;67.66;99680.81;4987553;28;45459;-71
2022/01/04 10:19:45;;;;;;;;;3.00;3.00;;;;;12.36;67.63;99689.16;4948981;28;45412;-71
2022/01/04 10:22:23;;;;;;;;;5.33;4.33;;;;;12.41;67.84;99682.06;4960843;28;45511;-71
2022/01/04 10:25:10;;;;;;;;;4.33;4.00;;;;;12.45;67.94;99681.31;4948732;28;45905;-73
2022/01/04 10:27:41;;;;;;;;;10.00;8.33;;;;;12.45;67.37;99678.56;4948367;28;45366;-77
2022/01/04 10:30:15;;;;;;;;;9.00;7.67;;;;;12.49;67.24;99660.50;4955074;28;45556;-78
2022/01/04 10:33:02;;;;;;;;;3.67;3.67;;;;;12.57;67.36;99652.94;4955459;28;45478;-77
2022/01/04 10:35:32;;;;;;;;;5.00;5.00;;;;;12.61;67.19;99659.59;4952645;28;47723;-76
2022/01/04 10:38:16;;;;;;;;;4.00;4.00;;;;;12.61;66.51;99654.09;4941343;28;46017;-71
2022/01/04 10:41:02;;;;;;;;;4.00;3.33;;;;;12.63;66.58;99657.44;4953394;28;45433;-75
2022/01/04 10:43:31;;;;;;;;;4.00;3.00;;;;;12.65;66.55;99663.50;4953467;28;45474;-76
2022/01/04 10:45:58;;;;;;;;;6.67;5.67;;;;;12.68;66.42;99654.78;4955253;28;45517;-76
2022/01/04 10:48:28;;;;;;;;;3.33;3.33;;;;;12.73;66.51;99657.59;4955227;28;45835;-78
2022/01/04 10:50:58;;;;;;;;;5.00;4.00;;;;;12.79;65.76;99648.34;4953933;28;45807;-72
2022/01/04 10:53:32;;;;;;;;;3.00;2.67;;;;;12.81;65.43;99664.59;4954577;28;45763;-73
2022/01/04 10:56:04;;;;;;;;;6.00;5.00;;;;;12.87;66.28;99669.94;4955826;28;45622;-72
2022/01/04 10:58:35;;;;;;;;;3.33;3.33;;;;;12.91;65.29;99666.69;4932435;28;45847;-76
2022/01/04 11:01:07;;;;;;;;;4.00;2.00;;;;;12.94;64.85;99661.50;4939336;28;45423;-77
2022/01/04 11:03:36;;;;;;;;;3.00;3.00;;;;;12.94;65.52;99664.25;4952001;28;45385;-72
2022/01/04 11:06:05;;;;;;;;;3.00;2.00;;;;;12.94;64.86;99668.94;4948310;28;45802;-72
2022/01/04 11:08:30;;;;;;;;;3.67;3.00;;;;;12.88;65.54;99668.03;4953499;28;45860;-72
2022/01/04 11:10:58;;;;;;;;;1.00;1.00;;;;;12.84;65.19;99659.44;4952922;28;45645;-76
2022/01/04 11:13:24;;;;;;;;;3.33;2.00;;;;;12.82;65.70;99645.09;4952392;28;45875;-72
2022/01/04 11:15:50;;;;;;;;;2.33;2.33;;;;;12.91;65.26;99642.75;4949258;28;45816;-73
2022/01/04 11:18:15;;;;;;;;;4.00;2.67;;;;;12.92;65.55;99638.06;4943841;28;45442;-71
2022/01/04 11:20:45;;;;;;;;;5.00;3.67;;;;;12.92;65.54;99636.16;4956843;28;45542;-77
2022/01/04 11:23:14;;;;;;;;;4.00;2.00;;;;;12.96;65.50;99653.00;4954764;28;45925;-72
2022/01/04 11:25:43;;;;;;;;;2.33;1.00;;;;;12.96;65.17;99655.75;4946035;28;47280;-73
2022/01/04 11:28:11;;;;;;;;;7.67;5.33;;;;;12.95;65.18;99665.94;4966222;28;45572;-73
2022/01/04 11:30:56;;;;;;;;;5.67;4.00;;;;;12.96;65.32;99662.09;4965912;28;45611;-74
2022/01/04 11:33:30;;;;;;;;;2.00;2.00;;;;;12.97;65.10;99646.41;4950032;28;47614;-78
2022/01/04 11:35:59;;;;;;;;;2.33;2.33;;;;;13.02;65.55;99643.72;4962349;28;45644;-78
2022/01/04 11:38:33;;;;;;;;;3.00;3.00;;;;;13.06;64.93;99647.66;4964500;28;45775;-77
2022/01/04 11:40:59;;;;;;;;;8.67;7.33;;;;;13.04;64.46;99627.81;4965473;28;45631;-79
2022/01/04 11:43:34;;;;;;;;;18.67;17.33;;;;;13.17;65.19;99643.97;4940761;28;45727;-80